sensor_id;sensor_type;location;lat;lon;timestamp;P1;durP1;ratioP1;P2;durP2;ratioP2
31081;SDS011;17737;52.586;13.284;2023-04-30T00:02:11;0.50;;;0.50;;
31081;SDS011;17737;52.586;13.284;2023-04-30T00:04:40;0.50;;;0.50;;
31081;SDS011;17737;52.586;13.284;2023-04-30T00:07:08;0.50;;;0.50;;
31081;SDS011;17737;52.586;13.284;2023-04-30T00:09:37;0.60;;;0.50;;
31081;SDS011;17737;52.586;13.284;2023-04-30T00:14:33;0.52;;;0.50;;
31081;SDS011;17737;52.586;13.284;2023-04-30T00:17:01;0.50;;;0.50;;
31081;SDS011;17737;52.586;13.284;2023-04-30T00:19:29;0.50;;;0.50;;
31081;SDS011;17737;52.586;13.284;2023-04-30T00:21:57;0.50;;;0.50;;
31081;SDS011;17737;52.586;13.284;2023-04-30T00:24:26;0.50;;;0.50;;
31081;SDS011;17737;52.586;13.284;2023-04-30T00:26:56;0.52;;;0.52;;
31081;SDS011;17737;52.586;13.284;2023-04-30T00:29:24;0.60;;;0.60;;
31081;SDS011;17737;52.586;13.284;2023-04-30T00:31:52;0.40;;;0.40;;
31081;SDS011;17737;52.586;13.284;2023-04-30T00:34:20;0.82;;;0.65;;
31081;SDS011;17737;52.586;13.284;2023-04-30T00:36:48;0.30;;;0.30;;
31081;SDS011;17737;52.586;13.284;2023-04-30T00:39:16;0.55;;;0.55;;
31081;SDS011;17737;52.586;13.284;2023-04-30T00:41:44;0.70;;;0.70;;
31081;SDS011;17737;52.586;13.284;2023-04-30T00:44:14;0.50;;;0.50;;
31081;SDS011;17737;52.586;13.284;2023-04-30T00:46:42;0.40;;;0.40;;
31081;SDS011;17737;52.586;13.284;2023-04-30T00:49:10;0.45;;;0.45;;
31081;SDS011;17737;52.586;13.284;2023-04-30T00:51:38;0.50;;;0.50;;
31081;SDS011;17737;52.586;13.284;2023-04-30T00:54:07;0.50;;;0.50;;
31081;SDS011;17737;52.586;13.284;2023-04-30T00:56:36;0.40;;;0.40;;
31081;SDS011;17737;52.586;13.284;2023-04-30T00:59:04;0.40;;;0.40;;
31081;SDS011;17737;52.586;13.284;2023-04-30T01:01:33;0.47;;;0.47;;
31081;SDS011;17737;52.586;13.284;2023-04-30T01:06:30;0.50;;;0.50;;
31081;SDS011;17737;52.586;13.284;2023-04-30T01:08:59;0.50;;;0.50;;
31081;SDS011;17737;52.586;13.284;2023-04-30T01:11:30;0.45;;;0.45;;
31081;SDS011;17737;52.586;13.284;2023-04-30T01:14:14;0.60;;;0.60;;
31081;SDS011;17737;52.586;13.284;2023-04-30T01:16:56;0.50;;;0.50;;
31081;SDS011;17737;52.586;13.284;2023-04-30T01:19:36;0.40;;;0.40;;
31081;SDS011;17737;52.586;13.284;2023-04-30T01:22:11;0.50;;;0.50;;
31081;SDS011;17737;52.586;13.284;2023-04-30T01:25:00;0.60;;;0.60;;
31081;SDS011;17737;52.586;13.284;2023-04-30T01:30:35;0.45;;;0.43;;
31081;SDS011;17737;52.586;13.284;2023-04-30T01:33:06;0.50;;;0.50;;
31081;SDS011;17737;52.586;13.284;2023-04-30T01:35:37;0.60;;;0.60;;
31081;SDS011;17737;52.586;13.284;2023-04-30T01:41:17;0.52;;;0.52;;
31081;SDS011;17737;52.586;13.284;2023-04-30T01:43:59;0.77;;;0.77;;
31081;SDS011;17737;52.586;13.284;2023-04-30T01:46:45;0.57;;;0.57;;
31081;SDS011;17737;52.586;13.284;2023-04-30T01:52:17;0.70;;;0.70;;
31081;SDS011;17737;52.586;13.284;2023-04-30T01:55:04;0.52;;;0.52;;
31081;SDS011;17737;52.586;13.284;2023-04-30T01:57:41;0.73;;;0.70;;
31081;SDS011;17737;52.586;13.284;2023-04-30T02:00:19;0.40;;;0.40;;
31081;SDS011;17737;52.586;13.284;2023-04-30T02:02:47;0.60;;;0.60;;
31081;SDS011;17737;52.586;13.284;2023-04-30T02:05:15;0.73;;;0.60;;
31081;SDS011;17737;52.586;13.284;2023-04-30T02:07:44;0.40;;;0.40;;
31081;SDS011;17737;52.586;13.284;2023-04-30T02:10:16;0.50;;;0.50;;
31081;SDS011;17737;52.586;13.284;2023-04-30T02:12:45;0.50;;;0.50;;
31081;SDS011;17737;52.586;13.284;2023-04-30T02:15:13;0.40;;;0.40;;
31081;SDS011;17737;52.586;13.284;2023-04-30T02:17:43;0.50;;;0.45;;
31081;SDS011;17737;52.586;13.284;2023-04-30T02:20:11;0.73;;;0.70;;
31081;SDS011;17737;52.586;13.284;2023-04-30T02:22:39;0.70;;;0.60;;
31081;SDS011;17737;52.586;13.284;2023-04-30T02:25:07;0.57;;;0.55;;
31081;SDS011;17737;52.586;13.284;2023-04-30T02:27:37;0.60;;;0.60;;
31081;SDS011;17737;52.586;13.284;2023-04-30T02:30:06;0.60;;;0.60;;
31081;SDS011;17737;52.586;13.284;2023-04-30T02:32:35;0.68;;;0.60;;
31081;SDS011;17737;52.586;13.284;2023-04-30T02:35:05;0.50;;;0.50;;
31081;SDS011;17737;52.586;13.284;2023-04-30T02:37:33;0.57;;;0.57;;
31081;SDS011;17737;52.586;13.284;2023-04-30T02:40:01;0.70;;;0.70;;
31081;SDS011;17737;52.586;13.284;2023-04-30T02:42:30;0.57;;;0.57;;
31081;SDS011;17737;52.586;13.284;2023-04-30T02:44:58;0.73;;;0.50;;
31081;SDS011;17737;52.586;13.284;2023-04-30T02:47:26;0.80;;;0.80;;
31081;SDS011;17737;52.586;13.284;2023-04-30T02:49:54;0.65;;;0.65;;
31081;SDS011;17737;52.586;13.284;2023-04-30T02:52:24;0.50;;;0.50;;
31081;SDS011;17737;52.586;13.284;2023-04-30T02:54:52;1.17;;;0.40;;
31081;SDS011;17737;52.586;13.284;2023-04-30T02:57:20;0.80;;;0.70;;
31081;SDS011;17737;52.586;13.284;2023-04-30T02:59:48;0.50;;;0.50;;
31081;SDS011;17737;52.586;13.284;2023-04-30T03:02:16;0.70;;;0.70;;
31081;SDS011;17737;52.586;13.284;2023-04-30T03:04:46;0.98;;;0.70;;
31081;SDS011;17737;52.586;13.284;2023-04-30T03:07:15;0.50;;;0.50;;
31081;SDS011;17737;52.586;13.284;2023-04-30T03:09:44;1.00;;;0.85;;
31081;SDS011;17737;52.586;13.284;2023-04-30T03:12:12;0.60;;;0.60;;
31081;SDS011;17737;52.586;13.284;2023-04-30T03:14:40;0.60;;;0.60;;
31081;SDS011;17737;52.586;13.284;2023-04-30T03:17:09;0.60;;;0.60;;
31081;SDS011;17737;52.586;13.284;2023-04-30T03:19:37;0.70;;;0.65;;
31081;SDS011;17737;52.586;13.284;2023-04-30T03:22:05;0.63;;;0.60;;
31081;SDS011;17737;52.586;13.284;2023-04-30T03:24:33;1.10;;;0.75;;
31081;SDS011;17737;52.586;13.284;2023-04-30T03:27:02;0.73;;;0.65;;
31081;SDS011;17737;52.586;13.284;2023-04-30T03:29:30;0.68;;;0.68;;
31081;SDS011;17737;52.586;13.284;2023-04-30T03:31:58;0.68;;;0.55;;
31081;SDS011;17737;52.586;13.284;2023-04-30T03:34:29;0.50;;;0.50;;
31081;SDS011;17737;52.586;13.284;2023-04-30T03:36:57;0.75;;;0.75;;
31081;SDS011;17737;52.586;13.284;2023-04-30T03:39:27;0.65;;;0.60;;
31081;SDS011;17737;52.586;13.284;2023-04-30T03:41:55;0.60;;;0.60;;
31081;SDS011;17737;52.586;13.284;2023-04-30T03:44:24;1.13;;;0.80;;
31081;SDS011;17737;52.586;13.284;2023-04-30T03:46:52;0.65;;;0.55;;
31081;SDS011;17737;52.586;13.284;2023-04-30T03:49:20;1.48;;;1.05;;
31081;SDS011;17737;52.586;13.284;2023-04-30T03:51:48;0.80;;;0.80;;
31081;SDS011;17737;52.586;13.284;2023-04-30T03:54:16;1.23;;;0.50;;
31081;SDS011;17737;52.586;13.284;2023-04-30T03:56:44;0.52;;;0.50;;
31081;SDS011;17737;52.586;13.284;2023-04-30T03:59:12;0.68;;;0.65;;
31081;SDS011;17737;52.586;13.284;2023-04-30T04:01:42;0.95;;;0.70;;
31081;SDS011;17737;52.586;13.284;2023-04-30T04:06:38;0.65;;;0.65;;
31081;SDS011;17737;52.586;13.284;2023-04-30T04:09:06;0.88;;;0.82;;
31081;SDS011;17737;52.586;13.284;2023-04-30T04:11:34;0.70;;;0.70;;
31081;SDS011;17737;52.586;13.284;2023-04-30T04:14:02;0.70;;;0.60;;
31081;SDS011;17737;52.586;13.284;2023-04-30T04:16:30;0.80;;;0.70;;
31081;SDS011;17737;52.586;13.284;2023-04-30T04:19:00;0.68;;;0.63;;
31081;SDS011;17737;52.586;13.284;2023-04-30T04:21:29;0.70;;;0.60;;
31081;SDS011;17737;52.586;13.284;2023-04-30T04:23:58;0.90;;;0.60;;
31081;SDS011;17737;52.586;13.284;2023-04-30T04:26:30;0.50;;;0.50;;
31081;SDS011;17737;52.586;13.284;2023-04-30T04:28:58;1.05;;;0.65;;
31081;SDS011;17737;52.586;13.284;2023-04-30T04:31:27;0.50;;;0.50;;
31081;SDS011;17737;52.586;13.284;2023-04-30T04:33:55;0.35;;;0.35;;
31081;SDS011;17737;52.586;13.284;2023-04-30T04:36:27;0.70;;;0.70;;
31081;SDS011;17737;52.586;13.284;2023-04-30T04:41:27;0.43;;;0.43;;
31081;SDS011;17737;52.586;13.284;2023-04-30T04:43:55;0.55;;;0.55;;
31081;SDS011;17737;52.586;13.284;2023-04-30T04:46:23;0.60;;;0.60;;
31081;SDS011;17737;52.586;13.284;2023-04-30T04:48:53;0.55;;;0.55;;
31081;SDS011;17737;52.586;13.284;2023-04-30T04:51:21;0.50;;;0.50;;
31081;SDS011;17737;52.586;13.284;2023-04-30T04:53:51;0.57;;;0.57;;
31081;SDS011;17737;52.586;13.284;2023-04-30T04:58:47;0.50;;;0.50;;
31081;SDS011;17737;52.586;13.284;2023-04-30T05:01:15;0.50;;;0.50;;
31081;SDS011;17737;52.586;13.284;2023-04-30T05:03:43;0.45;;;0.45;;
31081;SDS011;17737;52.586;13.284;2023-04-30T05:06:11;0.60;;;0.60;;
31081;SDS011;17737;52.586;13.284;2023-04-30T05:08:39;0.52;;;0.52;;
31081;SDS011;17737;52.586;13.284;2023-04-30T05:11:08;0.50;;;0.50;;
31081;SDS011;17737;52.586;13.284;2023-04-30T05:13:38;0.57;;;0.50;;
31081;SDS011;17737;52.586;13.284;2023-04-30T05:16:07;0.57;;;0.57;;
31081;SDS011;17737;52.586;13.284;2023-04-30T05:18:35;0.68;;;0.60;;
31081;SDS011;17737;52.586;13.284;2023-04-30T05:21:03;0.57;;;0.50;;
31081;SDS011;17737;52.586;13.284;2023-04-30T05:23:31;0.65;;;0.60;;
31081;SDS011;17737;52.586;13.284;2023-04-30T05:25:59;0.70;;;0.60;;
31081;SDS011;17737;52.586;13.284;2023-04-30T05:28:28;0.50;;;0.50;;
31081;SDS011;17737;52.586;13.284;2023-04-30T05:30:56;0.70;;;0.70;;
31081;SDS011;17737;52.586;13.284;2023-04-30T05:33:24;1.65;;;0.85;;
31081;SDS011;17737;52.586;13.284;2023-04-30T05:35:52;0.65;;;0.50;;
31081;SDS011;17737;52.586;13.284;2023-04-30T05:38:20;0.75;;;0.60;;
31081;SDS011;17737;52.586;13.284;2023-04-30T05:40:49;0.73;;;0.73;;
31081;SDS011;17737;52.586;13.284;2023-04-30T05:43:17;0.40;;;0.40;;
31081;SDS011;17737;52.586;13.284;2023-04-30T05:45:46;0.50;;;0.50;;
31081;SDS011;17737;52.586;13.284;2023-04-30T05:48:14;0.60;;;0.60;;
31081;SDS011;17737;52.586;13.284;2023-04-30T05:50:42;0.60;;;0.60;;
31081;SDS011;17737;52.586;13.284;2023-04-30T05:53:12;0.60;;;0.60;;
31081;SDS011;17737;52.586;13.284;2023-04-30T05:55:40;0.60;;;0.60;;
31081;SDS011;17737;52.586;13.284;2023-04-30T05:58:08;0.70;;;0.70;;
31081;SDS011;17737;52.586;13.284;2023-04-30T06:00:36;0.57;;;0.57;;
31081;SDS011;17737;52.586;13.284;2023-04-30T06:03:06;0.50;;;0.50;;
31081;SDS011;17737;52.586;13.284;2023-04-30T06:08:02;0.50;;;0.50;;
31081;SDS011;17737;52.586;13.284;2023-04-30T06:10:30;0.60;;;0.60;;
31081;SDS011;17737;52.586;13.284;2023-04-30T06:12:59;0.65;;;0.63;;
31081;SDS011;17737;52.586;13.284;2023-04-30T06:15:27;0.55;;;0.55;;
31081;SDS011;17737;52.586;13.284;2023-04-30T06:17:55;0.50;;;0.50;;
31081;SDS011;17737;52.586;13.284;2023-04-30T06:20:24;0.50;;;0.40;;
31081;SDS011;17737;52.586;13.284;2023-04-30T06:22:53;0.57;;;0.57;;
31081;SDS011;17737;52.586;13.284;2023-04-30T06:25:21;0.40;;;0.40;;
31081;SDS011;17737;52.586;13.284;2023-04-30T06:27:49;0.40;;;0.40;;
31081;SDS011;17737;52.586;13.284;2023-04-30T06:30:19;0.47;;;0.47;;
31081;SDS011;17737;52.586;13.284;2023-04-30T06:32:47;0.60;;;0.60;;
31081;SDS011;17737;52.586;13.284;2023-04-30T06:35:15;0.60;;;0.60;;
31081;SDS011;17737;52.586;13.284;2023-04-30T06:37:45;0.57;;;0.50;;
31081;SDS011;17737;52.586;13.284;2023-04-30T06:40:13;0.60;;;0.60;;
31081;SDS011;17737;52.586;13.284;2023-04-30T06:42:41;0.40;;;0.40;;
31081;SDS011;17737;52.586;13.284;2023-04-30T06:45:12;0.60;;;0.60;;
31081;SDS011;17737;52.586;13.284;2023-04-30T06:47:41;0.50;;;0.50;;
31081;SDS011;17737;52.586;13.284;2023-04-30T06:50:11;0.40;;;0.40;;
31081;SDS011;17737;52.586;13.284;2023-04-30T06:52:40;0.40;;;0.40;;
31081;SDS011;17737;52.586;13.284;2023-04-30T06:55:11;0.40;;;0.40;;
31081;SDS011;17737;52.586;13.284;2023-04-30T07:00:07;0.40;;;0.40;;
31081;SDS011;17737;52.586;13.284;2023-04-30T07:02:35;0.50;;;0.50;;
31081;SDS011;17737;52.586;13.284;2023-04-30T07:05:04;0.50;;;0.50;;
31081;SDS011;17737;52.586;13.284;2023-04-30T07:07:32;0.53;;;0.50;;
31081;SDS011;17737;52.586;13.284;2023-04-30T07:10:00;0.50;;;0.50;;
31081;SDS011;17737;52.586;13.284;2023-04-30T07:12:30;0.50;;;0.50;;
31081;SDS011;17737;52.586;13.284;2023-04-30T07:14:58;0.77;;;0.60;;
31081;SDS011;17737;52.586;13.284;2023-04-30T07:17:26;0.57;;;0.57;;
31081;SDS011;17737;52.586;13.284;2023-04-30T07:19:54;0.60;;;0.60;;
31081;SDS011;17737;52.586;13.284;2023-04-30T07:22:22;0.60;;;0.60;;
31081;SDS011;17737;52.586;13.284;2023-04-30T07:24:50;0.50;;;0.50;;
31081;SDS011;17737;52.586;13.284;2023-04-30T07:27:18;0.50;;;0.50;;
31081;SDS011;17737;52.586;13.284;2023-04-30T07:29:48;0.50;;;0.50;;
31081;SDS011;17737;52.586;13.284;2023-04-30T07:32:16;0.50;;;0.50;;
31081;SDS011;17737;52.586;13.284;2023-04-30T07:34:44;0.45;;;0.40;;
31081;SDS011;17737;52.586;13.284;2023-04-30T07:37:12;0.60;;;0.60;;
31081;SDS011;17737;52.586;13.284;2023-04-30T07:39:40;0.40;;;0.40;;
31081;SDS011;17737;52.586;13.284;2023-04-30T07:42:08;0.57;;;0.57;;
31081;SDS011;17737;52.586;13.284;2023-04-30T07:44:36;0.50;;;0.50;;
31081;SDS011;17737;52.586;13.284;2023-04-30T07:47:06;0.50;;;0.50;;
31081;SDS011;17737;52.586;13.284;2023-04-30T07:49:35;0.50;;;0.50;;
31081;SDS011;17737;52.586;13.284;2023-04-30T07:52:03;0.52;;;0.52;;
31081;SDS011;17737;52.586;13.284;2023-04-30T07:54:33;0.45;;;0.45;;
31081;SDS011;17737;52.586;13.284;2023-04-30T07:57:02;0.60;;;0.60;;
31081;SDS011;17737;52.586;13.284;2023-04-30T07:59:30;0.50;;;0.50;;
31081;SDS011;17737;52.586;13.284;2023-04-30T08:01:59;0.57;;;0.57;;
31081;SDS011;17737;52.586;13.284;2023-04-30T08:04:29;0.45;;;0.43;;
31081;SDS011;17737;52.586;13.284;2023-04-30T08:09:27;0.40;;;0.40;;
31081;SDS011;17737;52.586;13.284;2023-04-30T08:11:54;0.40;;;0.40;;
31081;SDS011;17737;52.586;13.284;2023-04-30T08:14:22;0.40;;;0.40;;
31081;SDS011;17737;52.586;13.284;2023-04-30T08:16:50;0.50;;;0.50;;
31081;SDS011;17737;52.586;13.284;2023-04-30T08:19:19;0.70;;;0.70;;
31081;SDS011;17737;52.586;13.284;2023-04-30T08:21:48;0.50;;;0.50;;
31081;SDS011;17737;52.586;13.284;2023-04-30T08:24:16;0.60;;;0.60;;
31081;SDS011;17737;52.586;13.284;2023-04-30T08:26:44;0.50;;;0.50;;
31081;SDS011;17737;52.586;13.284;2023-04-30T08:29:12;0.50;;;0.50;;
31081;SDS011;17737;52.586;13.284;2023-04-30T08:31:40;0.50;;;0.50;;
31081;SDS011;17737;52.586;13.284;2023-04-30T08:34:08;0.50;;;0.50;;
31081;SDS011;17737;52.586;13.284;2023-04-30T08:36:36;0.50;;;0.50;;
31081;SDS011;17737;52.586;13.284;2023-04-30T08:39:06;0.47;;;0.47;;
31081;SDS011;17737;52.586;13.284;2023-04-30T08:41:34;0.50;;;0.50;;
31081;SDS011;17737;52.586;13.284;2023-04-30T08:44:05;0.50;;;0.50;;
31081;SDS011;17737;52.586;13.284;2023-04-30T08:46:37;0.40;;;0.40;;
31081;SDS011;17737;52.586;13.284;2023-04-30T08:49:07;0.50;;;0.50;;
31081;SDS011;17737;52.586;13.284;2023-04-30T08:51:35;0.50;;;0.50;;
31081;SDS011;17737;52.586;13.284;2023-04-30T08:54:03;0.38;;;0.38;;
31081;SDS011;17737;52.586;13.284;2023-04-30T08:56:33;0.50;;;0.50;;
31081;SDS011;17737;52.586;13.284;2023-04-30T08:59:01;0.50;;;0.50;;
31081;SDS011;17737;52.586;13.284;2023-04-30T09:01:29;0.30;;;0.30;;
31081;SDS011;17737;52.586;13.284;2023-04-30T09:03:57;0.50;;;0.50;;
31081;SDS011;17737;52.586;13.284;2023-04-30T09:06:25;0.45;;;0.45;;
31081;SDS011;17737;52.586;13.284;2023-04-30T09:08:53;0.60;;;0.60;;
31081;SDS011;17737;52.586;13.284;2023-04-30T09:11:23;0.60;;;0.60;;
31081;SDS011;17737;52.586;13.284;2023-04-30T09:13:55;0.57;;;0.57;;
31081;SDS011;17737;52.586;13.284;2023-04-30T09:16:25;0.50;;;0.50;;
31081;SDS011;17737;52.586;13.284;2023-04-30T09:18:57;0.40;;;0.40;;
31081;SDS011;17737;52.586;13.284;2023-04-30T09:21:32;0.40;;;0.40;;
31081;SDS011;17737;52.586;13.284;2023-04-30T09:24:03;0.40;;;0.40;;
31081;SDS011;17737;52.586;13.284;2023-04-30T09:26:34;0.40;;;0.40;;
31081;SDS011;17737;52.586;13.284;2023-04-30T09:29:04;0.30;;;0.30;;
31081;SDS011;17737;52.586;13.284;2023-04-30T09:34:03;0.35;;;0.35;;
31081;SDS011;17737;52.586;13.284;2023-04-30T09:36:33;0.50;;;0.50;;
31081;SDS011;17737;52.586;13.284;2023-04-30T09:39:05;0.47;;;0.47;;
31081;SDS011;17737;52.586;13.284;2023-04-30T09:41:41;0.50;;;0.50;;
31081;SDS011;17737;52.586;13.284;2023-04-30T09:44:24;0.50;;;0.50;;
31081;SDS011;17737;52.586;13.284;2023-04-30T09:46:54;0.30;;;0.30;;
31081;SDS011;17737;52.586;13.284;2023-04-30T09:49:23;0.40;;;0.40;;
31081;SDS011;17737;52.586;13.284;2023-04-30T09:51:52;0.40;;;0.40;;
31081;SDS011;17737;52.586;13.284;2023-04-30T09:54:23;0.50;;;0.50;;
31081;SDS011;17737;52.586;13.284;2023-04-30T09:56:57;0.43;;;0.43;;
31081;SDS011;17737;52.586;13.284;2023-04-30T09:59:28;0.40;;;0.40;;
31081;SDS011;17737;52.586;13.284;2023-04-30T10:01:59;0.40;;;0.40;;
31081;SDS011;17737;52.586;13.284;2023-04-30T10:04:30;0.40;;;0.40;;
31081;SDS011;17737;52.586;13.284;2023-04-30T10:07:04;0.40;;;0.40;;
31081;SDS011;17737;52.586;13.284;2023-04-30T10:09:40;0.38;;;0.38;;
31081;SDS011;17737;52.586;13.284;2023-04-30T10:12:19;0.40;;;0.40;;
31081;SDS011;17737;52.586;13.284;2023-04-30T10:14:53;0.40;;;0.40;;
31081;SDS011;17737;52.586;13.284;2023-04-30T10:17:31;0.40;;;0.40;;
31081;SDS011;17737;52.586;13.284;2023-04-30T10:20:08;0.40;;;0.40;;
31081;SDS011;17737;52.586;13.284;2023-04-30T10:22:38;0.30;;;0.30;;
31081;SDS011;17737;52.586;13.284;2023-04-30T10:25:09;0.40;;;0.40;;
31081;SDS011;17737;52.586;13.284;2023-04-30T10:30:08;0.40;;;0.40;;
31081;SDS011;17737;52.586;13.284;2023-04-30T10:32:44;0.30;;;0.30;;
31081;SDS011;17737;52.586;13.284;2023-04-30T10:35:25;0.40;;;0.40;;
31081;SDS011;17737;52.586;13.284;2023-04-30T10:37:58;0.40;;;0.40;;
31081;SDS011;17737;52.586;13.284;2023-04-30T10:40:37;0.30;;;0.30;;
31081;SDS011;17737;52.586;13.284;2023-04-30T10:43:06;0.40;;;0.40;;
31081;SDS011;17737;52.586;13.284;2023-04-30T10:45:40;0.47;;;0.47;;
31081;SDS011;17737;52.586;13.284;2023-04-30T10:48:10;0.45;;;0.45;;
31081;SDS011;17737;52.586;13.284;2023-04-30T10:50:49;0.40;;;0.40;;
31081;SDS011;17737;52.586;13.284;2023-04-30T10:53:19;0.38;;;0.38;;
31081;SDS011;17737;52.586;13.284;2023-04-30T10:55:51;0.40;;;0.40;;
31081;SDS011;17737;52.586;13.284;2023-04-30T10:58:25;0.30;;;0.30;;
31081;SDS011;17737;52.586;13.284;2023-04-30T11:01:01;0.43;;;0.43;;
31081;SDS011;17737;52.586;13.284;2023-04-30T11:03:33;0.40;;;0.40;;
31081;SDS011;17737;52.586;13.284;2023-04-30T11:06:10;0.30;;;0.30;;
31081;SDS011;17737;52.586;13.284;2023-04-30T11:08:41;0.30;;;0.30;;
31081;SDS011;17737;52.586;13.284;2023-04-30T11:11:16;0.40;;;0.40;;
31081;SDS011;17737;52.586;13.284;2023-04-30T11:13:57;0.30;;;0.30;;
31081;SDS011;17737;52.586;13.284;2023-04-30T11:16:27;0.20;;;0.20;;
31081;SDS011;17737;52.586;13.284;2023-04-30T11:21:40;0.30;;;0.30;;
31081;SDS011;17737;52.586;13.284;2023-04-30T11:24:09;0.30;;;0.30;;
31081;SDS011;17737;52.586;13.284;2023-04-30T11:29:33;0.30;;;0.30;;
31081;SDS011;17737;52.586;13.284;2023-04-30T11:32:02;0.30;;;0.30;;
31081;SDS011;17737;52.586;13.284;2023-04-30T11:34:32;0.30;;;0.30;;
31081;SDS011;17737;52.586;13.284;2023-04-30T11:37:01;0.40;;;0.40;;
31081;SDS011;17737;52.586;13.284;2023-04-30T11:39:30;0.30;;;0.30;;
31081;SDS011;17737;52.586;13.284;2023-04-30T11:42:03;0.30;;;0.30;;
31081;SDS011;17737;52.586;13.284;2023-04-30T11:44:33;0.45;;;0.45;;
31081;SDS011;17737;52.586;13.284;2023-04-30T11:47:03;0.40;;;0.40;;
31081;SDS011;17737;52.586;13.284;2023-04-30T11:49:32;0.38;;;0.38;;
31081;SDS011;17737;52.586;13.284;2023-04-30T11:52:00;0.30;;;0.30;;
31081;SDS011;17737;52.586;13.284;2023-04-30T11:54:30;0.20;;;0.20;;
31081;SDS011;17737;52.586;13.284;2023-04-30T11:56:58;0.22;;;0.22;;
31081;SDS011;17737;52.586;13.284;2023-04-30T11:59:29;0.30;;;0.30;;
31081;SDS011;17737;52.586;13.284;2023-04-30T12:01:59;0.40;;;0.40;;
31081;SDS011;17737;52.586;13.284;2023-04-30T12:04:27;0.35;;;0.35;;
31081;SDS011;17737;52.586;13.284;2023-04-30T12:06:55;0.32;;;0.32;;
31081;SDS011;17737;52.586;13.284;2023-04-30T12:09:24;0.30;;;0.30;;
31081;SDS011;17737;52.586;13.284;2023-04-30T12:11:52;0.30;;;0.30;;
31081;SDS011;17737;52.586;13.284;2023-04-30T12:14:23;0.30;;;0.30;;
31081;SDS011;17737;52.586;13.284;2023-04-30T12:16:51;0.30;;;0.30;;
31081;SDS011;17737;52.586;13.284;2023-04-30T12:19:21;0.30;;;0.30;;
31081;SDS011;17737;52.586;13.284;2023-04-30T12:21:50;0.30;;;0.30;;
31081;SDS011;17737;52.586;13.284;2023-04-30T12:24:20;0.40;;;0.40;;
31081;SDS011;17737;52.586;13.284;2023-04-30T12:26:49;0.40;;;0.40;;
31081;SDS011;17737;52.586;13.284;2023-04-30T12:29:20;0.40;;;0.40;;
31081;SDS011;17737;52.586;13.284;2023-04-30T12:31:50;0.28;;;0.28;;
31081;SDS011;17737;52.586;13.284;2023-04-30T12:34:18;0.30;;;0.30;;
31081;SDS011;17737;52.586;13.284;2023-04-30T12:36:47;0.30;;;0.30;;
31081;SDS011;17737;52.586;13.284;2023-04-30T12:39:16;0.30;;;0.30;;
31081;SDS011;17737;52.586;13.284;2023-04-30T12:41:45;0.30;;;0.30;;
31081;SDS011;17737;52.586;13.284;2023-04-30T12:44:15;0.30;;;0.30;;
31081;SDS011;17737;52.586;13.284;2023-04-30T12:46:45;0.30;;;0.30;;
31081;SDS011;17737;52.586;13.284;2023-04-30T12:49:24;0.30;;;0.30;;
31081;SDS011;17737;52.586;13.284;2023-04-30T12:52:01;0.30;;;0.30;;
31081;SDS011;17737;52.586;13.284;2023-04-30T12:54:33;0.30;;;0.30;;
31081;SDS011;17737;52.586;13.284;2023-04-30T12:57:03;0.38;;;0.38;;
31081;SDS011;17737;52.586;13.284;2023-04-30T12:59:35;0.32;;;0.32;;
31081;SDS011;17737;52.586;13.284;2023-04-30T13:02:06;0.30;;;0.30;;
31081;SDS011;17737;52.586;13.284;2023-04-30T13:04:36;0.30;;;0.30;;
31081;SDS011;17737;52.586;13.284;2023-04-30T13:07:06;0.30;;;0.30;;
31081;SDS011;17737;52.586;13.284;2023-04-30T13:09:35;0.43;;;0.43;;
31081;SDS011;17737;52.586;13.284;2023-04-30T13:12:04;0.30;;;0.30;;
31081;SDS011;17737;52.586;13.284;2023-04-30T13:14:32;0.32;;;0.32;;
31081;SDS011;17737;52.586;13.284;2023-04-30T13:17:01;0.30;;;0.30;;
31081;SDS011;17737;52.586;13.284;2023-04-30T13:19:31;0.30;;;0.30;;
31081;SDS011;17737;52.586;13.284;2023-04-30T13:21:59;0.40;;;0.40;;
31081;SDS011;17737;52.586;13.284;2023-04-30T13:24:29;0.30;;;0.30;;
31081;SDS011;17737;52.586;13.284;2023-04-30T13:26:57;0.30;;;0.30;;
31081;SDS011;17737;52.586;13.284;2023-04-30T13:29:25;0.40;;;0.40;;
31081;SDS011;17737;52.586;13.284;2023-04-30T13:31:53;0.25;;;0.25;;
31081;SDS011;17737;52.586;13.284;2023-04-30T13:34:21;0.30;;;0.30;;
31081;SDS011;17737;52.586;13.284;2023-04-30T13:36:49;0.38;;;0.38;;
31081;SDS011;17737;52.586;13.284;2023-04-30T13:39:18;0.30;;;0.30;;
31081;SDS011;17737;52.586;13.284;2023-04-30T13:41:48;0.30;;;0.30;;
31081;SDS011;17737;52.586;13.284;2023-04-30T13:44:16;0.30;;;0.30;;
31081;SDS011;17737;52.586;13.284;2023-04-30T13:46:44;0.30;;;0.30;;
31081;SDS011;17737;52.586;13.284;2023-04-30T13:49:12;0.30;;;0.30;;
31081;SDS011;17737;52.586;13.284;2023-04-30T13:51:40;0.30;;;0.30;;
31081;SDS011;17737;52.586;13.284;2023-04-30T13:54:08;0.30;;;0.30;;
31081;SDS011;17737;52.586;13.284;2023-04-30T13:56:36;0.40;;;0.40;;
31081;SDS011;17737;52.586;13.284;2023-04-30T13:59:05;0.30;;;0.30;;
31081;SDS011;17737;52.586;13.284;2023-04-30T14:01:33;0.30;;;0.30;;
31081;SDS011;17737;52.586;13.284;2023-04-30T14:04:01;0.38;;;0.38;;
31081;SDS011;17737;52.586;13.284;2023-04-30T14:06:30;0.30;;;0.30;;
31081;SDS011;17737;52.586;13.284;2023-04-30T14:08:58;0.32;;;0.32;;
31081;SDS011;17737;52.586;13.284;2023-04-30T14:11:26;0.30;;;0.30;;
31081;SDS011;17737;52.586;13.284;2023-04-30T14:13:54;0.28;;;0.28;;
31081;SDS011;17737;52.586;13.284;2023-04-30T14:16:23;0.20;;;0.20;;
31081;SDS011;17737;52.586;13.284;2023-04-30T14:18:52;0.20;;;0.20;;
31081;SDS011;17737;52.586;13.284;2023-04-30T14:21:20;0.30;;;0.30;;
31081;SDS011;17737;52.586;13.284;2023-04-30T14:23:48;0.20;;;0.20;;
31081;SDS011;17737;52.586;13.284;2023-04-30T14:26:17;0.20;;;0.20;;
31081;SDS011;17737;52.586;13.284;2023-04-30T14:28:46;0.30;;;0.30;;
31081;SDS011;17737;52.586;13.284;2023-04-30T14:31:14;0.30;;;0.30;;
31081;SDS011;17737;52.586;13.284;2023-04-30T14:33:44;0.30;;;0.30;;
31081;SDS011;17737;52.586;13.284;2023-04-30T14:36:12;0.22;;;0.22;;
31081;SDS011;17737;52.586;13.284;2023-04-30T14:38:40;0.30;;;0.30;;
31081;SDS011;17737;52.586;13.284;2023-04-30T14:41:07;0.30;;;0.30;;
31081;SDS011;17737;52.586;13.284;2023-04-30T14:43:36;0.25;;;0.25;;
31081;SDS011;17737;52.586;13.284;2023-04-30T14:46:04;0.30;;;0.30;;
31081;SDS011;17737;52.586;13.284;2023-04-30T14:48:32;0.20;;;0.20;;
31081;SDS011;17737;52.586;13.284;2023-04-30T14:51:01;0.20;;;0.20;;
31081;SDS011;17737;52.586;13.284;2023-04-30T14:53:30;0.10;;;0.10;;
31081;SDS011;17737;52.586;13.284;2023-04-30T14:55:58;0.20;;;0.20;;
31081;SDS011;17737;52.586;13.284;2023-04-30T14:58:27;0.28;;;0.28;;
31081;SDS011;17737;52.586;13.284;2023-04-30T15:00:55;0.17;;;0.17;;
31081;SDS011;17737;52.586;13.284;2023-04-30T15:03:23;0.20;;;0.20;;
31081;SDS011;17737;52.586;13.284;2023-04-30T15:05:51;0.20;;;0.20;;
31081;SDS011;17737;52.586;13.284;2023-04-30T15:08:21;0.20;;;0.20;;
31081;SDS011;17737;52.586;13.284;2023-04-30T15:10:49;0.20;;;0.20;;
31081;SDS011;17737;52.586;13.284;2023-04-30T15:13:17;0.13;;;0.13;;
31081;SDS011;17737;52.586;13.284;2023-04-30T15:15:45;0.10;;;0.10;;
31081;SDS011;17737;52.586;13.284;2023-04-30T15:20:42;0.10;;;0.10;;
31081;SDS011;17737;52.586;13.284;2023-04-30T15:23:10;0.10;;;0.10;;
31081;SDS011;17737;52.586;13.284;2023-04-30T15:25:40;0.20;;;0.20;;
31081;SDS011;17737;52.586;13.284;2023-04-30T15:28:09;0.20;;;0.20;;
31081;SDS011;17737;52.586;13.284;2023-04-30T15:30:37;0.20;;;0.20;;